sensor_id;sensor_type;location;lat;lon;timestamp;P1;durP1;ratioP1;P2;durP2;ratioP2
77581;SDS011;66726;52.388;9.986;2023-01-10T00:01:46;22.20;;;9.60;;
77581;SDS011;66726;52.388;9.986;2023-01-10T00:04:14;21.17;;;9.57;;
77581;SDS011;66726;52.388;9.986;2023-01-10T00:06:44;20.20;;;10.53;;
77581;SDS011;66726;52.388;9.986;2023-01-10T00:09:12;15.63;;;9.93;;
77581;SDS011;66726;52.388;9.986;2023-01-10T00:11:40;17.87;;;10.33;;
77581;SDS011;66726;52.388;9.986;2023-01-10T00:14:26;23.30;;;10.57;;
77581;SDS011;66726;52.388;9.986;2023-01-10T00:16:55;19.67;;;10.57;;
77581;SDS011;66726;52.388;9.986;2023-01-10T00:19:23;19.43;;;9.87;;
77581;SDS011;66726;52.388;9.986;2023-01-10T00:21:52;16.00;;;10.03;;
77581;SDS011;66726;52.388;9.986;2023-01-10T00:24:22;18.73;;;10.40;;
77581;SDS011;66726;52.388;9.986;2023-01-10T00:26:51;17.93;;;10.00;;
77581;SDS011;66726;52.388;9.986;2023-01-10T00:29:20;16.80;;;10.67;;
77581;SDS011;66726;52.388;9.986;2023-01-10T00:31:51;18.53;;;11.53;;
77581;SDS011;66726;52.388;9.986;2023-01-10T00:34:20;23.33;;;11.97;;
77581;SDS011;66726;52.388;9.986;2023-01-10T00:36:48;20.17;;;11.17;;
77581;SDS011;66726;52.388;9.986;2023-01-10T00:39:17;20.77;;;11.33;;
77581;SDS011;66726;52.388;9.986;2023-01-10T00:41:46;17.03;;;11.13;;
77581;SDS011;66726;52.388;9.986;2023-01-10T00:44:32;18.63;;;11.17;;
77581;SDS011;66726;52.388;9.986;2023-01-10T00:47:00;18.77;;;11.50;;
77581;SDS011;66726;52.388;9.986;2023-01-10T00:49:28;16.80;;;10.67;;
77581;SDS011;66726;52.388;9.986;2023-01-10T00:51:56;24.00;;;12.40;;
77581;SDS011;66726;52.388;9.986;2023-01-10T00:54:26;20.70;;;11.27;;
77581;SDS011;66726;52.388;9.986;2023-01-10T00:56:54;17.23;;;11.63;;
77581;SDS011;66726;52.388;9.986;2023-01-10T00:59:22;23.03;;;12.70;;
77581;SDS011;66726;52.388;9.986;2023-01-10T01:01:51;17.17;;;12.07;;
77581;SDS011;66726;52.388;9.986;2023-01-10T01:04:19;15.70;;;10.43;;
77581;SDS011;66726;52.388;9.986;2023-01-10T01:06:48;18.23;;;11.50;;
77581;SDS011;66726;52.388;9.986;2023-01-10T01:09:16;19.43;;;12.10;;
77581;SDS011;66726;52.388;9.986;2023-01-10T01:11:46;20.50;;;12.27;;
77581;SDS011;66726;52.388;9.986;2023-01-10T01:14:14;19.57;;;12.97;;
77581;SDS011;66726;52.388;9.986;2023-01-10T01:16:42;18.73;;;12.30;;
77581;SDS011;66726;52.388;9.986;2023-01-10T01:19:10;19.10;;;11.97;;
77581;SDS011;66726;52.388;9.986;2023-01-10T01:21:39;20.80;;;12.80;;
77581;SDS011;66726;52.388;9.986;2023-01-10T01:24:07;19.57;;;12.57;;
77581;SDS011;66726;52.388;9.986;2023-01-10T01:26:37;18.93;;;12.70;;
77581;SDS011;66726;52.388;9.986;2023-01-10T01:29:09;17.87;;;12.20;;
77581;SDS011;66726;52.388;9.986;2023-01-10T01:31:37;21.93;;;13.23;;
77581;SDS011;66726;52.388;9.986;2023-01-10T01:34:05;23.30;;;13.07;;
77581;SDS011;66726;52.388;9.986;2023-01-10T01:36:33;21.53;;;12.93;;
77581;SDS011;66726;52.388;9.986;2023-01-10T01:39:01;20.40;;;13.70;;
77581;SDS011;66726;52.388;9.986;2023-01-10T01:41:31;21.43;;;13.10;;
77581;SDS011;66726;52.388;9.986;2023-01-10T01:44:18;22.43;;;13.33;;
77581;SDS011;66726;52.388;9.986;2023-01-10T01:46:47;18.93;;;13.30;;
77581;SDS011;66726;52.388;9.986;2023-01-10T01:49:26;19.43;;;12.30;;
77581;SDS011;66726;52.388;9.986;2023-01-10T01:51:57;18.97;;;12.67;;
77581;SDS011;66726;52.388;9.986;2023-01-10T01:54:34;22.97;;;14.20;;
77581;SDS011;66726;52.388;9.986;2023-01-10T01:57:04;21.97;;;14.37;;
77581;SDS011;66726;52.388;9.986;2023-01-10T01:59:39;20.97;;;12.87;;
77581;SDS011;66726;52.388;9.986;2023-01-10T02:02:12;18.90;;;13.10;;
77581;SDS011;66726;52.388;9.986;2023-01-10T02:04:47;20.43;;;13.83;;
77581;SDS011;66726;52.388;9.986;2023-01-10T02:07:21;17.17;;;12.63;;
77581;SDS011;66726;52.388;9.986;2023-01-10T02:09:54;19.83;;;13.27;;
77581;SDS011;66726;52.388;9.986;2023-01-10T02:12:27;19.80;;;13.47;;
77581;SDS011;66726;52.388;9.986;2023-01-10T02:14:59;21.73;;;13.40;;
77581;SDS011;66726;52.388;9.986;2023-01-10T02:17:30;18.90;;;13.60;;
77581;SDS011;66726;52.388;9.986;2023-01-10T02:19:59;18.73;;;12.67;;
77581;SDS011;66726;52.388;9.986;2023-01-10T02:22:38;18.87;;;12.90;;
77581;SDS011;66726;52.388;9.986;2023-01-10T02:25:46;20.27;;;12.80;;
77581;SDS011;66726;52.388;9.986;2023-01-10T02:28:48;20.83;;;12.73;;
77581;SDS011;66726;52.388;9.986;2023-01-10T02:35:14;17.60;;;12.13;;
77581;SDS011;66726;52.388;9.986;2023-01-10T02:38:03;19.20;;;12.50;;
77581;SDS011;66726;52.388;9.986;2023-01-10T02:40:45;17.40;;;11.87;;
77581;SDS011;66726;52.388;9.986;2023-01-10T02:43:28;20.73;;;13.53;;
77581;SDS011;66726;52.388;9.986;2023-01-10T02:46:03;20.73;;;13.40;;
77581;SDS011;66726;52.388;9.986;2023-01-10T02:48:38;19.87;;;11.47;;
77581;SDS011;66726;52.388;9.986;2023-01-10T02:51:07;18.77;;;11.17;;
77581;SDS011;66726;52.388;9.986;2023-01-10T02:53:45;13.70;;;9.00;;
77581;SDS011;66726;52.388;9.986;2023-01-10T02:56:26;14.93;;;10.30;;
77581;SDS011;66726;52.388;9.986;2023-01-10T02:59:37;15.37;;;10.10;;
77581;SDS011;66726;52.388;9.986;2023-01-10T03:02:21;16.50;;;10.90;;
77581;SDS011;66726;52.388;9.986;2023-01-10T03:05:06;16.23;;;10.60;;
77581;SDS011;66726;52.388;9.986;2023-01-10T03:07:50;18.07;;;11.63;;
77581;SDS011;66726;52.388;9.986;2023-01-10T03:10:28;18.77;;;12.03;;
77581;SDS011;66726;52.388;9.986;2023-01-10T03:13:05;18.07;;;12.27;;
77581;SDS011;66726;52.388;9.986;2023-01-10T03:15:42;17.43;;;11.37;;
77581;SDS011;66726;52.388;9.986;2023-01-10T03:18:14;18.77;;;12.10;;
77581;SDS011;66726;52.388;9.986;2023-01-10T03:20:50;14.93;;;10.30;;
77581;SDS011;66726;52.388;9.986;2023-01-10T03:23:20;17.13;;;10.67;;
77581;SDS011;66726;52.388;9.986;2023-01-10T03:25:51;17.73;;;10.63;;
77581;SDS011;66726;52.388;9.986;2023-01-10T03:28:25;15.03;;;10.13;;
77581;SDS011;66726;52.388;9.986;2023-01-10T03:30:58;20.53;;;12.97;;
77581;SDS011;66726;52.388;9.986;2023-01-10T03:33:35;16.83;;;9.77;;
77581;SDS011;66726;52.388;9.986;2023-01-10T03:36:08;15.37;;;8.70;;
77581;SDS011;66726;52.388;9.986;2023-01-10T03:38:46;16.83;;;8.57;;
77581;SDS011;66726;52.388;9.986;2023-01-10T03:41:22;17.17;;;8.67;;
77581;SDS011;66726;52.388;9.986;2023-01-10T03:44:05;14.90;;;8.13;;
77581;SDS011;66726;52.388;9.986;2023-01-10T03:47:12;13.33;;;7.90;;
77581;SDS011;66726;52.388;9.986;2023-01-10T03:49:55;17.47;;;8.60;;
77581;SDS011;66726;52.388;9.986;2023-01-10T03:52:30;21.03;;;8.13;;
77581;SDS011;66726;52.388;9.986;2023-01-10T03:55:01;18.17;;;8.87;;
77581;SDS011;66726;52.388;9.986;2023-01-10T03:57:31;13.37;;;8.10;;
77581;SDS011;66726;52.388;9.986;2023-01-10T04:00:00;14.47;;;7.30;;
77581;SDS011;66726;52.388;9.986;2023-01-10T04:02:30;15.47;;;7.23;;
77581;SDS011;66726;52.388;9.986;2023-01-10T04:04:58;13.47;;;7.10;;
77581;SDS011;66726;52.388;9.986;2023-01-10T04:07:26;13.80;;;7.00;;
77581;SDS011;66726;52.388;9.986;2023-01-10T04:09:56;17.27;;;6.40;;
77581;SDS011;66726;52.388;9.986;2023-01-10T04:12:24;17.63;;;6.27;;
77581;SDS011;66726;52.388;9.986;2023-01-10T04:14:52;17.30;;;6.80;;
77581;SDS011;66726;52.388;9.986;2023-01-10T04:17:21;12.83;;;5.93;;
77581;SDS011;66726;52.388;9.986;2023-01-10T04:19:49;14.33;;;5.93;;
77581;SDS011;66726;52.388;9.986;2023-01-10T04:22:17;15.70;;;5.80;;
77581;SDS011;66726;52.388;9.986;2023-01-10T04:24:45;11.43;;;4.97;;
77581;SDS011;66726;52.388;9.986;2023-01-10T04:27:17;12.20;;;4.83;;
77581;SDS011;66726;52.388;9.986;2023-01-10T04:29:47;12.00;;;5.00;;
77581;SDS011;66726;52.388;9.986;2023-01-10T04:32:15;14.10;;;5.40;;
77581;SDS011;66726;52.388;9.986;2023-01-10T04:34:43;12.10;;;5.17;;
77581;SDS011;66726;52.388;9.986;2023-01-10T04:37:11;14.90;;;5.37;;
77581;SDS011;66726;52.388;9.986;2023-01-10T04:39:39;14.00;;;4.80;;
77581;SDS011;66726;52.388;9.986;2023-01-10T04:42:07;14.77;;;5.10;;
77581;SDS011;66726;52.388;9.986;2023-01-10T04:44:36;12.60;;;5.43;;
77581;SDS011;66726;52.388;9.986;2023-01-10T04:47:04;14.90;;;5.13;;
77581;SDS011;66726;52.388;9.986;2023-01-10T04:49:32;16.90;;;4.80;;
77581;SDS011;66726;52.388;9.986;2023-01-10T04:52:01;15.90;;;5.40;;
77581;SDS011;66726;52.388;9.986;2023-01-10T04:54:29;15.43;;;5.53;;
77581;SDS011;66726;52.388;9.986;2023-01-10T04:56:57;14.77;;;5.30;;
77581;SDS011;66726;52.388;9.986;2023-01-10T04:59:25;14.10;;;5.40;;
77581;SDS011;66726;52.388;9.986;2023-01-10T05:01:54;14.20;;;5.40;;
77581;SDS011;66726;52.388;9.986;2023-01-10T05:04:23;14.77;;;5.33;;
77581;SDS011;66726;52.388;9.986;2023-01-10T05:06:52;15.63;;;5.67;;
77581;SDS011;66726;52.388;9.986;2023-01-10T05:09:20;17.87;;;6.43;;
77581;SDS011;66726;52.388;9.986;2023-01-10T05:11:48;18.17;;;5.50;;
77581;SDS011;66726;52.388;9.986;2023-01-10T05:14:16;16.73;;;5.53;;
77581;SDS011;66726;52.388;9.986;2023-01-10T05:16:44;18.80;;;5.43;;
77581;SDS011;66726;52.388;9.986;2023-01-10T05:19:13;20.53;;;5.43;;
77581;SDS011;66726;52.388;9.986;2023-01-10T05:21:42;19.27;;;5.03;;
77581;SDS011;66726;52.388;9.986;2023-01-10T05:24:10;17.83;;;5.43;;
77581;SDS011;66726;52.388;9.986;2023-01-10T05:26:38;16.10;;;5.53;;
77581;SDS011;66726;52.388;9.986;2023-01-10T05:29:08;16.90;;;5.07;;
77581;SDS011;66726;52.388;9.986;2023-01-10T05:31:37;15.47;;;5.27;;
77581;SDS011;66726;52.388;9.986;2023-01-10T05:34:05;20.83;;;5.17;;
77581;SDS011;66726;52.388;9.986;2023-01-10T05:36:34;13.00;;;5.13;;
77581;SDS011;66726;52.388;9.986;2023-01-10T05:39:03;17.10;;;5.57;;
77581;SDS011;66726;52.388;9.986;2023-01-10T05:41:31;16.20;;;5.10;;
77581;SDS011;66726;52.388;9.986;2023-01-10T05:43:59;18.93;;;5.80;;
77581;SDS011;66726;52.388;9.986;2023-01-10T05:46:27;14.73;;;4.97;;
77581;SDS011;66726;52.388;9.986;2023-01-10T05:48:55;13.07;;;4.90;;
77581;SDS011;66726;52.388;9.986;2023-01-10T05:51:23;15.20;;;5.10;;
77581;SDS011;66726;52.388;9.986;2023-01-10T05:53:53;16.27;;;5.13;;
77581;SDS011;66726;52.388;9.986;2023-01-10T05:56:21;16.50;;;5.40;;
77581;SDS011;66726;52.388;9.986;2023-01-10T05:58:49;18.23;;;5.53;;
77581;SDS011;66726;52.388;9.986;2023-01-10T06:01:30;14.03;;;4.97;;
77581;SDS011;66726;52.388;9.986;2023-01-10T06:03:58;16.37;;;5.13;;
77581;SDS011;66726;52.388;9.986;2023-01-10T06:06:26;19.30;;;6.37;;
77581;SDS011;66726;52.388;9.986;2023-01-10T06:08:56;18.07;;;5.20;;
77581;SDS011;66726;52.388;9.986;2023-01-10T06:11:25;13.03;;;4.93;;
77581;SDS011;66726;52.388;9.986;2023-01-10T06:13:55;17.47;;;5.17;;
77581;SDS011;66726;52.388;9.986;2023-01-10T06:16:23;15.43;;;5.13;;
77581;SDS011;66726;52.388;9.986;2023-01-10T06:18:51;21.00;;;5.73;;
77581;SDS011;66726;52.388;9.986;2023-01-10T06:21:19;17.83;;;6.23;;
77581;SDS011;66726;52.388;9.986;2023-01-10T06:23:47;22.20;;;6.83;;
77581;SDS011;66726;52.388;9.986;2023-01-10T06:26:17;16.27;;;6.33;;
77581;SDS011;66726;52.388;9.986;2023-01-10T06:28:45;19.97;;;6.90;;
77581;SDS011;66726;52.388;9.986;2023-01-10T06:31:13;17.00;;;6.60;;
77581;SDS011;66726;52.388;9.986;2023-01-10T06:33:41;19.27;;;7.23;;
77581;SDS011;66726;52.388;9.986;2023-01-10T06:36:09;19.80;;;7.63;;
77581;SDS011;66726;52.388;9.986;2023-01-10T06:38:37;20.10;;;7.27;;
77581;SDS011;66726;52.388;9.986;2023-01-10T06:41:05;15.53;;;7.67;;
77581;SDS011;66726;52.388;9.986;2023-01-10T06:43:40;14.93;;;7.13;;
77581;SDS011;66726;52.388;9.986;2023-01-10T06:46:10;16.77;;;7.17;;
77581;SDS011;66726;52.388;9.986;2023-01-10T06:48:39;25.47;;;7.67;;
77581;SDS011;66726;52.388;9.986;2023-01-10T06:51:09;21.07;;;8.30;;
77581;SDS011;66726;52.388;9.986;2023-01-10T06:53:37;19.70;;;7.63;;
77581;SDS011;66726;52.388;9.986;2023-01-10T06:56:06;19.23;;;7.30;;
77581;SDS011;66726;52.388;9.986;2023-01-10T06:58:35;25.70;;;7.53;;
77581;SDS011;66726;52.388;9.986;2023-01-10T07:01:06;23.20;;;7.93;;
77581;SDS011;66726;52.388;9.986;2023-01-10T07:03:40;19.93;;;7.60;;
77581;SDS011;66726;52.388;9.986;2023-01-10T07:06:08;15.70;;;7.03;;
77581;SDS011;66726;52.388;9.986;2023-01-10T07:08:37;22.47;;;7.60;;
77581;SDS011;66726;52.388;9.986;2023-01-10T07:11:07;17.60;;;7.73;;
77581;SDS011;66726;52.388;9.986;2023-01-10T07:13:36;21.07;;;8.20;;
77581;SDS011;66726;52.388;9.986;2023-01-10T07:16:07;17.37;;;8.17;;
77581;SDS011;66726;52.388;9.986;2023-01-10T07:18:38;34.30;;;9.87;;
77581;SDS011;66726;52.388;9.986;2023-01-10T07:21:08;45.30;;;11.60;;
77581;SDS011;66726;52.388;9.986;2023-01-10T07:23:37;29.63;;;10.30;;
77581;SDS011;66726;52.388;9.986;2023-01-10T07:26:06;26.40;;;8.50;;
77581;SDS011;66726;52.388;9.986;2023-01-10T07:28:42;22.67;;;7.90;;
77581;SDS011;66726;52.388;9.986;2023-01-10T07:31:12;18.30;;;7.60;;
77581;SDS011;66726;52.388;9.986;2023-01-10T07:33:41;18.43;;;7.50;;
77581;SDS011;66726;52.388;9.986;2023-01-10T07:36:10;24.10;;;8.40;;
77581;SDS011;66726;52.388;9.986;2023-01-10T07:38:38;20.40;;;8.27;;
77581;SDS011;66726;52.388;9.986;2023-01-10T07:41:06;26.50;;;8.73;;
77581;SDS011;66726;52.388;9.986;2023-01-10T07:43:34;20.80;;;8.40;;
77581;SDS011;66726;52.388;9.986;2023-01-10T07:46:03;23.27;;;8.87;;
77581;SDS011;66726;52.388;9.986;2023-01-10T07:48:36;20.43;;;7.13;;
77581;SDS011;66726;52.388;9.986;2023-01-10T07:51:06;21.30;;;7.60;;
77581;SDS011;66726;52.388;9.986;2023-01-10T07:53:35;17.57;;;7.73;;
77581;SDS011;66726;52.388;9.986;2023-01-10T07:56:04;16.50;;;7.10;;
77581;SDS011;66726;52.388;9.986;2023-01-10T07:58:33;18.10;;;7.40;;
77581;SDS011;66726;52.388;9.986;2023-01-10T08:01:03;19.50;;;7.00;;
77581;SDS011;66726;52.388;9.986;2023-01-10T08:03:32;21.37;;;7.60;;
77581;SDS011;66726;52.388;9.986;2023-01-10T08:06:04;17.13;;;7.13;;
77581;SDS011;66726;52.388;9.986;2023-01-10T08:08:35;24.13;;;7.77;;
77581;SDS011;66726;52.388;9.986;2023-01-10T08:11:04;13.87;;;6.83;;
77581;SDS011;66726;52.388;9.986;2023-01-10T08:13:33;19.67;;;8.27;;
77581;SDS011;66726;52.388;9.986;2023-01-10T08:16:03;29.73;;;11.27;;
77581;SDS011;66726;52.388;9.986;2023-01-10T08:18:33;27.73;;;8.37;;
77581;SDS011;66726;52.388;9.986;2023-01-10T08:21:03;66.43;;;21.27;;
77581;SDS011;66726;52.388;9.986;2023-01-10T08:23:31;57.57;;;17.50;;
77581;SDS011;66726;52.388;9.986;2023-01-10T08:26:00;40.07;;;13.47;;
77581;SDS011;66726;52.388;9.986;2023-01-10T08:28:29;32.57;;;11.37;;
77581;SDS011;66726;52.388;9.986;2023-01-10T08:30:57;36.47;;;10.17;;
77581;SDS011;66726;52.388;9.986;2023-01-10T08:33:25;42.33;;;12.10;;
77581;SDS011;66726;52.388;9.986;2023-01-10T08:35:53;27.23;;;9.67;;
77581;SDS011;66726;52.388;9.986;2023-01-10T08:38:22;26.97;;;10.07;;
77581;SDS011;66726;52.388;9.986;2023-01-10T08:40:50;23.50;;;9.57;;
77581;SDS011;66726;52.388;9.986;2023-01-10T08:43:18;24.83;;;10.43;;
77581;SDS011;66726;52.388;9.986;2023-01-10T08:45:47;23.13;;;10.80;;
77581;SDS011;66726;52.388;9.986;2023-01-10T08:48:16;23.47;;;11.00;;
77581;SDS011;66726;52.388;9.986;2023-01-10T08:50:44;24.43;;;10.50;;
77581;SDS011;66726;52.388;9.986;2023-01-10T08:53:12;27.17;;;11.70;;
77581;SDS011;66726;52.388;9.986;2023-01-10T08:55:42;18.13;;;10.67;;
77581;SDS011;66726;52.388;9.986;2023-01-10T08:58:10;23.57;;;10.10;;
77581;SDS011;66726;52.388;9.986;2023-01-10T09:00:38;21.03;;;10.07;;
77581;SDS011;66726;52.388;9.986;2023-01-10T09:03:06;28.20;;;10.07;;
77581;SDS011;66726;52.388;9.986;2023-01-10T09:05:35;25.30;;;10.20;;
77581;SDS011;66726;52.388;9.986;2023-01-10T09:08:03;23.30;;;9.90;;
77581;SDS011;66726;52.388;9.986;2023-01-10T09:10:31;21.23;;;9.83;;
77581;SDS011;66726;52.388;9.986;2023-01-10T09:13:01;26.33;;;10.70;;
77581;SDS011;66726;52.388;9.986;2023-01-10T09:15:30;21.20;;;9.90;;
77581;SDS011;66726;52.388;9.986;2023-01-10T09:18:02;22.13;;;10.77;;
77581;SDS011;66726;52.388;9.986;2023-01-10T09:20:32;20.90;;;10.83;;
77581;SDS011;66726;52.388;9.986;2023-01-10T09:23:06;23.03;;;11.63;;
77581;SDS011;66726;52.388;9.986;2023-01-10T09:25:37;25.73;;;11.23;;
77581;SDS011;66726;52.388;9.986;2023-01-10T09:28:06;22.70;;;10.77;;
77581;SDS011;66726;52.388;9.986;2023-01-10T09:30:34;22.37;;;11.63;;
77581;SDS011;66726;52.388;9.986;2023-01-10T09:33:03;29.97;;;12.13;;
77581;SDS011;66726;52.388;9.986;2023-01-10T09:35:34;28.00;;;11.63;;
77581;SDS011;66726;52.388;9.986;2023-01-10T09:38:04;27.50;;;13.63;;
77581;SDS011;66726;52.388;9.986;2023-01-10T09:40:44;42.43;;;17.20;;
77581;SDS011;66726;52.388;9.986;2023-01-10T09:43:44;38.87;;;15.20;;
77581;SDS011;66726;52.388;9.986;2023-01-10T09:46:30;29.53;;;13.43;;
77581;SDS011;66726;52.388;9.986;2023-01-10T09:49:11;24.43;;;11.70;;
77581;SDS011;66726;52.388;9.986;2023-01-10T09:51:52;31.67;;;12.47;;
77581;SDS011;66726;52.388;9.986;2023-01-10T09:54:25;32.03;;;14.37;;
77581;SDS011;66726;52.388;9.986;2023-01-10T09:56:56;28.57;;;12.97;;
77581;SDS011;66726;52.388;9.986;2023-01-10T09:59:30;28.33;;;13.93;;
77581;SDS011;66726;52.388;9.986;2023-01-10T10:02:13;27.57;;;12.67;;
77581;SDS011;66726;52.388;9.986;2023-01-10T10:04:56;29.20;;;12.97;;
77581;SDS011;66726;52.388;9.986;2023-01-10T10:07:36;24.37;;;12.97;;
77581;SDS011;66726;52.388;9.986;2023-01-10T10:10:05;29.00;;;11.93;;
77581;SDS011;66726;52.388;9.986;2023-01-10T10:12:43;20.63;;;11.17;;
77581;SDS011;66726;52.388;9.986;2023-01-10T10:15:29;26.37;;;12.73;;
77581;SDS011;66726;52.388;9.986;2023-01-10T10:18:11;29.93;;;12.57;;
77581;SDS011;66726;52.388;9.986;2023-01-10T10:20:55;27.40;;;11.70;;
77581;SDS011;66726;52.388;9.986;2023-01-10T10:23:34;30.77;;;13.10;;
77581;SDS011;66726;52.388;9.986;2023-01-10T10:26:31;27.67;;;12.93;;
77581;SDS011;66726;52.388;9.986;2023-01-10T10:32:20;20.80;;;11.63;;
77581;SDS011;66726;52.388;9.986;2023-01-10T10:35:07;22.00;;;12.17;;
77581;SDS011;66726;52.388;9.986;2023-01-10T10:37:45;24.80;;;13.03;;
77581;SDS011;66726;52.388;9.986;2023-01-10T10:40:18;29.67;;;13.00;;
77581;SDS011;66726;52.388;9.986;2023-01-10T10:42:51;28.33;;;13.23;;
77581;SDS011;66726;52.388;9.986;2023-01-10T10:45:25;27.07;;;13.13;;
77581;SDS011;66726;52.388;9.986;2023-01-10T10:48:10;26.13;;;13.57;;
77581;SDS011;66726;52.388;9.986;2023-01-10T10:50:47;26.60;;;13.50;;
77581;SDS011;66726;52.388;9.986;2023-01-10T10:53:26;26.17;;;12.67;;
77581;SDS011;66726;52.388;9.986;2023-01-10T10:55:55;26.57;;;12.97;;
77581;SDS011;66726;52.388;9.986;2023-01-10T10:58:24;23.57;;;12.43;;
77581;SDS011;66726;52.388;9.986;2023-01-10T11:00:55;27.00;;;13.07;;
77581;SDS011;66726;52.388;9.986;2023-01-10T11:03:26;30.93;;;14.13;;
77581;SDS011;66726;52.388;9.986;2023-01-10T11:06:04;20.97;;;13.03;;
77581;SDS011;66726;52.388;9.986;2023-01-10T11:08:35;116.13;;;29.80;;
77581;SDS011;66726;52.388;9.986;2023-01-10T11:11:11;28.23;;;14.33;;
77581;SDS011;66726;52.388;9.986;2023-01-10T11:13:48;21.80;;;12.13;;
77581;SDS011;66726;52.388;9.986;2023-01-10T11:16:23;24.60;;;13.20;;
77581;SDS011;66726;52.388;9.986;2023-01-10T11:19:14;26.30;;;12.00;;
77581;SDS011;66726;52.388;9.986;2023-01-10T11:21:48;22.77;;;11.17;;
77581;SDS011;66726;52.388;9.986;2023-01-10T11:24:22;36.67;;;14.40;;
77581;SDS011;66726;52.388;9.986;2023-01-10T11:26:57;46.77;;;16.47;;
77581;SDS011;66726;52.388;9.986;2023-01-10T11:29:31;19.10;;;10.37;;
77581;SDS011;66726;52.388;9.986;2023-01-10T11:32:10;24.13;;;10.80;;
77581;SDS011;66726;52.388;9.986;2023-01-10T11:34:45;38.80;;;12.83;;
77581;SDS011;66726;52.388;9.986;2023-01-10T11:37:20;26.23;;;10.80;;
77581;SDS011;66726;52.388;9.986;2023-01-10T11:42:51;18.07;;;10.73;;
77581;SDS011;66726;52.388;9.986;2023-01-10T11:45:26;27.93;;;10.80;;
77581;SDS011;66726;52.388;9.986;2023-01-10T11:48:01;24.50;;;11.27;;
77581;SDS011;66726;52.388;9.986;2023-01-10T11:50:36;25.70;;;11.03;;
77581;SDS011;66726;52.388;9.986;2023-01-10T11:53:25;21.60;;;10.63;;
77581;SDS011;66726;52.388;9.986;2023-01-10T11:56:05;29.00;;;12.97;;
77581;SDS011;66726;52.388;9.986;2023-01-10T11:58:36;51.43;;;16.50;;
77581;SDS011;66726;52.388;9.986;2023-01-10T12:01:16;53.73;;;16.77;;
77581;SDS011;66726;52.388;9.986;2023-01-10T12:04:01;29.10;;;11.50;;
77581;SDS011;66726;52.388;9.986;2023-01-10T12:06:31;24.23;;;9.97;;
77581;SDS011;66726;52.388;9.986;2023-01-10T12:09:00;23.23;;;10.63;;
77581;SDS011;66726;52.388;9.986;2023-01-10T12:11:29;27.87;;;13.10;;
77581;SDS011;66726;52.388;9.986;2023-01-10T12:14:00;34.37;;;14.70;;
77581;SDS011;66726;52.388;9.986;2023-01-10T12:16:29;31.50;;;12.57;;
77581;SDS011;66726;52.388;9.986;2023-01-10T12:18:59;22.73;;;10.40;;
77581;SDS011;66726;52.388;9.986;2023-01-10T12:21:34;23.10;;;11.20;;
77581;SDS011;66726;52.388;9.986;2023-01-10T12:24:10;22.17;;;10.60;;
77581;SDS011;66726;52.388;9.986;2023-01-10T12:26:44;27.50;;;10.83;;
77581;SDS011;66726;52.388;9.986;2023-01-10T12:29:16;26.33;;;9.87;;
77581;SDS011;66726;52.388;9.986;2023-01-10T12:31:52;24.60;;;9.53;;
77581;SDS011;66726;52.388;9.986;2023-01-10T12:34:25;25.57;;;9.37;;
77581;SDS011;66726;52.388;9.986;2023-01-10T12:37:11;28.67;;;10.47;;
77581;SDS011;66726;52.388;9.986;2023-01-10T12:39:47;29.40;;;9.70;;
77581;SDS011;66726;52.388;9.986;2023-01-10T12:42:26;22.27;;;9.20;;
77581;SDS011;66726;52.388;9.986;2023-01-10T12:45:37;26.87;;;10.30;;
77581;SDS011;66726;52.388;9.986;2023-01-10T12:48:16;24.90;;;9.70;;
77581;SDS011;66726;52.388;9.986;2023-01-10T12:50:58;20.47;;;8.93;;
77581;SDS011;66726;52.388;9.986;2023-01-10T12:53:36;27.13;;;9.90;;
77581;SDS011;66726;52.388;9.986;2023-01-10T12:56:12;21.67;;;8.93;;
77581;SDS011;66726;52.388;9.986;2023-01-10T12:58:44;19.53;;;8.90;;
77581;SDS011;66726;52.388;9.986;2023-01-10T13:01:17;27.90;;;9.10;;
77581;SDS011;66726;52.388;9.986;2023-01-10T13:03:55;19.43;;;7.57;;
77581;SDS011;66726;52.388;9.986;2023-01-10T13:06:29;22.57;;;8.07;;
77581;SDS011;66726;52.388;9.986;2023-01-10T13:09:04;43.80;;;11.40;;
77581;SDS011;66726;52.388;9.986;2023-01-10T13:11:39;26.63;;;9.83;;
77581;SDS011;66726;52.388;9.986;2023-01-10T13:14:18;71.40;;;13.30;;
77581;SDS011;66726;52.388;9.986;2023-01-10T13:16:57;20.83;;;7.93;;
77581;SDS011;66726;52.388;9.986;2023-01-10T13:19:37;19.13;;;8.00;;
77581;SDS011;66726;52.388;9.986;2023-01-10T13:22:17;23.03;;;7.53;;
77581;SDS011;66726;52.388;9.986;2023-01-10T13:24:56;26.10;;;8.70;;
77581;SDS011;66726;52.388;9.986;2023-01-10T13:27:28;23.57;;;9.23;;
77581;SDS011;66726;52.388;9.986;2023-01-10T13:30:00;26.53;;;8.13;;
77581;SDS011;66726;52.388;9.986;2023-01-10T13:32:32;21.23;;;7.77;;
77581;SDS011;66726;52.388;9.986;2023-01-10T13:35:10;22.73;;;6.90;;
77581;SDS011;66726;52.388;9.986;2023-01-10T13:37:43;20.53;;;7.23;;
77581;SDS011;66726;52.388;9.986;2023-01-10T13:40:21;24.40;;;7.20;;
77581;SDS011;66726;52.388;9.986;2023-01-10T13:46:45;31.07;;;8.47;;
77581;SDS011;66726;52.388;9.986;2023-01-10T13:49:37;26.33;;;7.63;;
77581;SDS011;66726;52.388;9.986;2023-01-10T13:55:19;21.93;;;7.30;;
77581;SDS011;66726;52.388;9.986;2023-01-10T14:01:26;25.13;;;8.23;;
77581;SDS011;66726;52.388;9.986;2023-01-10T14:04:21;18.83;;;7.13;;
77581;SDS011;66726;52.388;9.986;2023-01-10T14:06:53;22.90;;;7.10;;
77581;SDS011;66726;52.388;9.986;2023-01-10T14:09:29;21.17;;;7.37;;
77581;SDS011;66726;52.388;9.986;2023-01-10T14:12:06;18.40;;;7.50;;
77581;SDS011;66726;52.388;9.986;2023-01-10T14:14:49;24.17;;;8.03;;
77581;SDS011;66726;52.388;9.986;2023-01-10T14:17:26;25.70;;;7.90;;
77581;SDS011;66726;52.388;9.986;2023-01-10T14:20:04;21.47;;;7.43;;
77581;SDS011;66726;52.388;9.986;2023-01-10T14:22:55;21.07;;;7.80;;
77581;SDS011;66726;52.388;9.986;2023-01-10T14:25:29;26.13;;;8.23;;
77581;SDS011;66726;52.388;9.986;2023-01-10T14:28:03;22.23;;;8.30;;
77581;SDS011;66726;52.388;9.986;2023-01-10T14:30:45;20.20;;;8.27;;
77581;SDS011;66726;52.388;9.986;2023-01-10T14:33:29;20.87;;;7.00;;
77581;SDS011;66726;52.388;9.986;2023-01-10T14:36:00;17.47;;;7.53;;
77581;SDS011;66726;52.388;9.986;2023-01-10T14:38:34;19.73;;;7.13;;
77581;SDS011;66726;52.388;9.986;2023-01-10T14:41:05;18.03;;;6.93;;
77581;SDS011;66726;52.388;9.986;2023-01-10T14:43:46;22.57;;;6.67;;
77581;SDS011;66726;52.388;9.986;2023-01-10T14:46:21;22.03;;;7.07;;
77581;SDS011;66726;52.388;9.986;2023-01-10T14:48:59;23.27;;;6.77;;
77581;SDS011;66726;52.388;9.986;2023-01-10T14:51:28;21.77;;;7.17;;
77581;SDS011;66726;52.388;9.986;2023-01-10T14:53:57;19.13;;;5.93;;
77581;SDS011;66726;52.388;9.986;2023-01-10T14:56:29;18.97;;;7.33;;
77581;SDS011;66726;52.388;9.986;2023-01-10T15:02:02;22.27;;;8.47;;
77581;SDS011;66726;52.388;9.986;2023-01-10T15:04:46;25.73;;;7.60;;
77581;SDS011;66726;52.388;9.986;2023-01-10T15:07:21;20.47;;;7.73;;
77581;SDS011;66726;52.388;9.986;2023-01-10T15:09:51;16.47;;;7.53;;
77581;SDS011;66726;52.388;9.986;2023-01-10T15:12:22;17.80;;;6.87;;
77581;SDS011;66726;52.388;9.986;2023-01-10T15:14:58;19.27;;;6.47;;
77581;SDS011;66726;52.388;9.986;2023-01-10T15:17:32;45.70;;;28.70;;
77581;SDS011;66726;52.388;9.986;2023-01-10T15:20:03;19.80;;;7.70;;
77581;SDS011;66726;52.388;9.986;2023-01-10T15:22:33;25.03;;;8.20;;
77581;SDS011;66726;52.388;9.986;2023-01-10T15:25:03;19.70;;;7.63;;
77581;SDS011;66726;52.388;9.986;2023-01-10T15:27:52;21.80;;;8.10;;